sensor_id;sensor_type;location;lat;lon;timestamp;P1;durP1;ratioP1;P2;durP2;ratioP2
11931;SDS011;6025;51.368;6.788;2023-04-16T00:04:38;23.77;;;15.73;;
11931;SDS011;6025;51.368;6.788;2023-04-16T00:09:30;22.10;;;15.20;;
11931;SDS011;6025;51.368;6.788;2023-04-16T00:14:22;23.33;;;14.50;;
11931;SDS011;6025;51.368;6.788;2023-04-16T00:19:14;16.03;;;11.53;;
11931;SDS011;6025;51.368;6.788;2023-04-16T00:24:06;20.37;;;13.07;;
11931;SDS011;6025;51.368;6.788;2023-04-16T00:28:58;22.40;;;13.87;;
11931;SDS011;6025;51.368;6.788;2023-04-16T00:33:49;24.53;;;17.57;;
11931;SDS011;6025;51.368;6.788;2023-04-16T00:38:42;19.27;;;13.57;;
11931;SDS011;6025;51.368;6.788;2023-04-16T00:43:33;17.40;;;11.60;;
11931;SDS011;6025;51.368;6.788;2023-04-16T00:48:25;16.53;;;10.57;;
11931;SDS011;6025;51.368;6.788;2023-04-16T00:53:17;19.30;;;10.87;;
11931;SDS011;6025;51.368;6.788;2023-04-16T00:58:11;18.70;;;11.97;;
11931;SDS011;6025;51.368;6.788;2023-04-16T01:03:03;19.43;;;12.80;;
11931;SDS011;6025;51.368;6.788;2023-04-16T01:07:57;20.20;;;12.30;;
11931;SDS011;6025;51.368;6.788;2023-04-16T01:12:48;20.07;;;13.93;;
11931;SDS011;6025;51.368;6.788;2023-04-16T01:17:41;23.73;;;14.43;;
11931;SDS011;6025;51.368;6.788;2023-04-16T01:22:35;28.73;;;16.87;;
11931;SDS011;6025;51.368;6.788;2023-04-16T01:27:27;23.40;;;14.50;;
11931;SDS011;6025;51.368;6.788;2023-04-16T01:32:18;21.80;;;13.83;;
11931;SDS011;6025;51.368;6.788;2023-04-16T01:37:10;20.20;;;13.63;;
11931;SDS011;6025;51.368;6.788;2023-04-16T01:42:03;22.07;;;13.97;;
11931;SDS011;6025;51.368;6.788;2023-04-16T01:46:55;24.53;;;13.47;;
11931;SDS011;6025;51.368;6.788;2023-04-16T01:51:47;23.60;;;13.67;;
11931;SDS011;6025;51.368;6.788;2023-04-16T01:56:38;24.33;;;14.10;;
11931;SDS011;6025;51.368;6.788;2023-04-16T02:01:31;29.50;;;15.00;;
11931;SDS011;6025;51.368;6.788;2023-04-16T02:06:23;24.30;;;15.17;;
11931;SDS011;6025;51.368;6.788;2023-04-16T02:11:15;22.43;;;13.87;;
11931;SDS011;6025;51.368;6.788;2023-04-16T02:16:06;23.70;;;14.63;;
11931;SDS011;6025;51.368;6.788;2023-04-16T02:20:59;31.13;;;16.10;;
11931;SDS011;6025;51.368;6.788;2023-04-16T02:25:51;32.90;;;17.27;;
11931;SDS011;6025;51.368;6.788;2023-04-16T02:30:42;28.47;;;17.80;;
11931;SDS011;6025;51.368;6.788;2023-04-16T02:35:34;25.30;;;17.10;;
11931;SDS011;6025;51.368;6.788;2023-04-16T02:40:28;21.57;;;15.00;;
11931;SDS011;6025;51.368;6.788;2023-04-16T02:45:20;23.80;;;16.80;;
11931;SDS011;6025;51.368;6.788;2023-04-16T02:50:11;29.20;;;16.90;;
11931;SDS011;6025;51.368;6.788;2023-04-16T02:55:03;29.50;;;17.70;;
11931;SDS011;6025;51.368;6.788;2023-04-16T02:59:57;33.77;;;19.93;;
11931;SDS011;6025;51.368;6.788;2023-04-16T03:04:48;32.80;;;21.37;;
11931;SDS011;6025;51.368;6.788;2023-04-16T03:09:40;31.43;;;20.43;;
11931;SDS011;6025;51.368;6.788;2023-04-16T03:14:31;32.33;;;21.23;;
11931;SDS011;6025;51.368;6.788;2023-04-16T03:19:24;32.33;;;21.37;;
11931;SDS011;6025;51.368;6.788;2023-04-16T03:24:16;35.00;;;22.17;;
11931;SDS011;6025;51.368;6.788;2023-04-16T03:29:10;35.30;;;22.60;;
11931;SDS011;6025;51.368;6.788;2023-04-16T03:34:02;32.77;;;21.57;;
11931;SDS011;6025;51.368;6.788;2023-04-16T03:38:55;38.83;;;22.47;;
11931;SDS011;6025;51.368;6.788;2023-04-16T03:43:46;35.83;;;23.47;;
11931;SDS011;6025;51.368;6.788;2023-04-16T03:48:38;39.77;;;24.30;;
11931;SDS011;6025;51.368;6.788;2023-04-16T03:53:29;36.67;;;22.10;;
11931;SDS011;6025;51.368;6.788;2023-04-16T03:58:22;33.80;;;21.20;;
11931;SDS011;6025;51.368;6.788;2023-04-16T04:03:14;34.13;;;20.47;;
11931;SDS011;6025;51.368;6.788;2023-04-16T04:08:06;38.13;;;22.37;;
11931;SDS011;6025;51.368;6.788;2023-04-16T04:12:57;37.03;;;22.37;;
11931;SDS011;6025;51.368;6.788;2023-04-16T04:17:50;37.13;;;22.53;;
11931;SDS011;6025;51.368;6.788;2023-04-16T04:22:42;38.40;;;23.63;;
11931;SDS011;6025;51.368;6.788;2023-04-16T04:27:33;37.97;;;23.60;;
11931;SDS011;6025;51.368;6.788;2023-04-16T04:32:25;36.53;;;22.77;;
11931;SDS011;6025;51.368;6.788;2023-04-16T04:37:18;38.83;;;23.60;;
11931;SDS011;6025;51.368;6.788;2023-04-16T04:42:09;38.50;;;22.57;;
11931;SDS011;6025;51.368;6.788;2023-04-16T04:47:01;39.20;;;22.80;;
11931;SDS011;6025;51.368;6.788;2023-04-16T04:51:52;38.70;;;23.53;;
11931;SDS011;6025;51.368;6.788;2023-04-16T04:56:45;40.63;;;23.93;;
11931;SDS011;6025;51.368;6.788;2023-04-16T05:01:37;38.30;;;23.33;;
11931;SDS011;6025;51.368;6.788;2023-04-16T05:06:28;36.00;;;23.10;;
11931;SDS011;6025;51.368;6.788;2023-04-16T05:11:20;39.30;;;24.00;;
11931;SDS011;6025;51.368;6.788;2023-04-16T05:16:13;38.20;;;23.43;;
11931;SDS011;6025;51.368;6.788;2023-04-16T05:21:04;38.27;;;22.07;;
11931;SDS011;6025;51.368;6.788;2023-04-16T05:25:56;37.90;;;23.13;;
11931;SDS011;6025;51.368;6.788;2023-04-16T05:30:47;37.67;;;23.43;;
11931;SDS011;6025;51.368;6.788;2023-04-16T05:35:40;41.97;;;25.67;;
11931;SDS011;6025;51.368;6.788;2023-04-16T05:40:32;38.97;;;23.27;;
11931;SDS011;6025;51.368;6.788;2023-04-16T05:45:23;41.93;;;25.13;;
11931;SDS011;6025;51.368;6.788;2023-04-16T05:50:15;40.23;;;25.67;;
11931;SDS011;6025;51.368;6.788;2023-04-16T05:55:08;38.20;;;24.37;;
11931;SDS011;6025;51.368;6.788;2023-04-16T06:00:00;39.27;;;23.53;;
11931;SDS011;6025;51.368;6.788;2023-04-16T06:04:53;38.27;;;23.10;;
11931;SDS011;6025;51.368;6.788;2023-04-16T06:09:45;34.90;;;21.47;;
11931;SDS011;6025;51.368;6.788;2023-04-16T06:14:38;31.93;;;19.23;;
11931;SDS011;6025;51.368;6.788;2023-04-16T06:19:29;31.40;;;18.17;;
11931;SDS011;6025;51.368;6.788;2023-04-16T06:24:21;28.47;;;17.00;;
11931;SDS011;6025;51.368;6.788;2023-04-16T06:29:12;27.77;;;16.80;;
11931;SDS011;6025;51.368;6.788;2023-04-16T06:34:05;26.53;;;16.83;;
11931;SDS011;6025;51.368;6.788;2023-04-16T06:38:57;27.83;;;17.30;;
11931;SDS011;6025;51.368;6.788;2023-04-16T06:43:48;25.70;;;16.43;;
11931;SDS011;6025;51.368;6.788;2023-04-16T06:48:40;24.73;;;16.63;;
11931;SDS011;6025;51.368;6.788;2023-04-16T06:53:33;23.97;;;16.23;;
11931;SDS011;6025;51.368;6.788;2023-04-16T06:58:26;23.00;;;15.40;;
11931;SDS011;6025;51.368;6.788;2023-04-16T07:03:18;23.10;;;15.50;;
11931;SDS011;6025;51.368;6.788;2023-04-16T07:08:09;21.57;;;15.37;;
11931;SDS011;6025;51.368;6.788;2023-04-16T07:13:02;24.27;;;17.73;;
11931;SDS011;6025;51.368;6.788;2023-04-16T07:17:54;24.03;;;15.27;;
11931;SDS011;6025;51.368;6.788;2023-04-16T07:22:45;23.77;;;17.00;;
11931;SDS011;6025;51.368;6.788;2023-04-16T07:27:37;25.70;;;16.50;;
11931;SDS011;6025;51.368;6.788;2023-04-16T07:32:30;24.20;;;17.57;;
11931;SDS011;6025;51.368;6.788;2023-04-16T07:37:21;22.43;;;16.50;;
11931;SDS011;6025;51.368;6.788;2023-04-16T07:42:13;26.37;;;18.03;;
11931;SDS011;6025;51.368;6.788;2023-04-16T07:47:04;22.20;;;16.63;;
11931;SDS011;6025;51.368;6.788;2023-04-16T07:51:57;22.90;;;17.00;;
11931;SDS011;6025;51.368;6.788;2023-04-16T07:56:48;20.63;;;16.17;;
11931;SDS011;6025;51.368;6.788;2023-04-16T08:01:40;22.80;;;16.53;;
11931;SDS011;6025;51.368;6.788;2023-04-16T08:06:32;26.90;;;17.85;;
11931;SDS011;6025;51.368;6.788;2023-04-16T08:11:25;22.02;;;16.35;;
11931;SDS011;6025;51.368;6.788;2023-04-16T08:16:16;20.08;;;15.13;;
11931;SDS011;6025;51.368;6.788;2023-04-16T08:21:08;18.90;;;14.93;;
11931;SDS011;6025;51.368;6.788;2023-04-16T08:25:59;20.42;;;14.82;;
11931;SDS011;6025;51.368;6.788;2023-04-16T08:30:52;20.67;;;15.45;;
11931;SDS011;6025;51.368;6.788;2023-04-16T08:35:44;21.92;;;15.15;;
11931;SDS011;6025;51.368;6.788;2023-04-16T08:40:36;19.85;;;15.15;;
11931;SDS011;6025;51.368;6.788;2023-04-16T08:45:29;19.25;;;14.23;;
11931;SDS011;6025;51.368;6.788;2023-04-16T08:50:25;22.48;;;15.45;;
11931;SDS011;6025;51.368;6.788;2023-04-16T08:55:18;19.55;;;14.82;;
11931;SDS011;6025;51.368;6.788;2023-04-16T09:00:10;20.23;;;15.77;;
11931;SDS011;6025;51.368;6.788;2023-04-16T09:05:03;20.58;;;14.45;;
11931;SDS011;6025;51.368;6.788;2023-04-16T09:09:57;18.77;;;13.57;;
11931;SDS011;6025;51.368;6.788;2023-04-16T09:14:50;19.10;;;13.35;;
11931;SDS011;6025;51.368;6.788;2023-04-16T09:19:42;19.90;;;13.82;;
11931;SDS011;6025;51.368;6.788;2023-04-16T09:24:33;22.00;;;15.10;;
11931;SDS011;6025;51.368;6.788;2023-04-16T09:29:35;20.35;;;15.80;;
11931;SDS011;6025;51.368;6.788;2023-04-16T09:34:28;22.40;;;16.63;;
11931;SDS011;6025;51.368;6.788;2023-04-16T09:39:22;20.63;;;15.95;;
11931;SDS011;6025;51.368;6.788;2023-04-16T09:44:13;17.10;;;14.07;;
11931;SDS011;6025;51.368;6.788;2023-04-16T09:49:08;20.83;;;13.50;;
11931;SDS011;6025;51.368;6.788;2023-04-16T09:54:00;17.67;;;13.80;;
11931;SDS011;6025;51.368;6.788;2023-04-16T09:58:56;21.48;;;14.32;;
11931;SDS011;6025;51.368;6.788;2023-04-16T10:03:48;18.88;;;13.75;;
11931;SDS011;6025;51.368;6.788;2023-04-16T10:08:43;19.50;;;14.43;;
11931;SDS011;6025;51.368;6.788;2023-04-16T10:13:34;15.20;;;12.68;;
11931;SDS011;6025;51.368;6.788;2023-04-16T10:18:26;14.02;;;12.18;;
11931;SDS011;6025;51.368;6.788;2023-04-16T10:23:18;12.88;;;11.40;;
11931;SDS011;6025;51.368;6.788;2023-04-16T10:28:11;12.52;;;11.02;;
11931;SDS011;6025;51.368;6.788;2023-04-16T10:33:04;13.00;;;10.88;;
11931;SDS011;6025;51.368;6.788;2023-04-16T10:37:56;12.75;;;10.80;;
11931;SDS011;6025;51.368;6.788;2023-04-16T10:42:52;14.05;;;10.82;;
11931;SDS011;6025;51.368;6.788;2023-04-16T10:47:45;14.30;;;11.35;;
11931;SDS011;6025;51.368;6.788;2023-04-16T10:52:37;14.02;;;10.80;;
11931;SDS011;6025;51.368;6.788;2023-04-16T10:57:30;15.40;;;12.52;;
11931;SDS011;6025;51.368;6.788;2023-04-16T11:02:22;15.32;;;10.98;;
11931;SDS011;6025;51.368;6.788;2023-04-16T11:07:20;21.20;;;13.93;;
11931;SDS011;6025;51.368;6.788;2023-04-16T11:12:13;15.70;;;12.15;;
11931;SDS011;6025;51.368;6.788;2023-04-16T11:17:07;13.63;;;11.80;;
11931;SDS011;6025;51.368;6.788;2023-04-16T11:21:59;12.02;;;10.73;;
11931;SDS011;6025;51.368;6.788;2023-04-16T11:26:52;16.83;;;11.23;;
11931;SDS011;6025;51.368;6.788;2023-04-16T11:31:48;11.38;;;9.80;;
11931;SDS011;6025;51.368;6.788;2023-04-16T11:36:43;12.77;;;10.75;;
11931;SDS011;6025;51.368;6.788;2023-04-16T11:41:40;17.90;;;9.82;;
11931;SDS011;6025;51.368;6.788;2023-04-16T11:46:39;10.48;;;9.32;;
11931;SDS011;6025;51.368;6.788;2023-04-16T11:51:31;9.77;;;8.77;;
11931;SDS011;6025;51.368;6.788;2023-04-16T11:56:26;10.68;;;9.55;;
11931;SDS011;6025;51.368;6.788;2023-04-16T12:01:19;13.52;;;10.35;;
11931;SDS011;6025;51.368;6.788;2023-04-16T12:06:12;10.23;;;9.20;;
11931;SDS011;6025;51.368;6.788;2023-04-16T12:11:04;13.45;;;10.00;;
11931;SDS011;6025;51.368;6.788;2023-04-16T12:15:55;11.85;;;10.15;;
11931;SDS011;6025;51.368;6.788;2023-04-16T12:20:47;12.00;;;10.18;;
11931;SDS011;6025;51.368;6.788;2023-04-16T12:25:42;11.73;;;9.48;;
11931;SDS011;6025;51.368;6.788;2023-04-16T12:30:34;11.90;;;9.20;;
11931;SDS011;6025;51.368;6.788;2023-04-16T12:35:40;10.95;;;9.77;;
11931;SDS011;6025;51.368;6.788;2023-04-16T12:40:32;11.30;;;9.48;;
11931;SDS011;6025;51.368;6.788;2023-04-16T12:45:26;10.20;;;8.57;;
11931;SDS011;6025;51.368;6.788;2023-04-16T12:50:18;10.13;;;8.93;;
11931;SDS011;6025;51.368;6.788;2023-04-16T12:55:09;10.70;;;8.73;;
11931;SDS011;6025;51.368;6.788;2023-04-16T13:00:01;10.93;;;9.25;;
11931;SDS011;6025;51.368;6.788;2023-04-16T13:04:55;10.63;;;8.93;;
11931;SDS011;6025;51.368;6.788;2023-04-16T13:09:46;11.63;;;10.00;;
11931;SDS011;6025;51.368;6.788;2023-04-16T13:14:38;12.60;;;10.55;;
11931;SDS011;6025;51.368;6.788;2023-04-16T13:19:30;12.98;;;10.65;;
11931;SDS011;6025;51.368;6.788;2023-04-16T13:24:22;12.13;;;9.90;;
11931;SDS011;6025;51.368;6.788;2023-04-16T13:29:14;13.38;;;11.15;;
11931;SDS011;6025;51.368;6.788;2023-04-16T13:34:06;12.52;;;10.68;;
11931;SDS011;6025;51.368;6.788;2023-04-16T13:38:58;13.18;;;11.18;;
11931;SDS011;6025;51.368;6.788;2023-04-16T13:43:51;13.02;;;11.52;;
11931;SDS011;6025;51.368;6.788;2023-04-16T13:48:42;14.13;;;11.13;;
11931;SDS011;6025;51.368;6.788;2023-04-16T13:53:35;13.52;;;11.93;;
11931;SDS011;6025;51.368;6.788;2023-04-16T13:58:26;16.45;;;13.55;;
11931;SDS011;6025;51.368;6.788;2023-04-16T14:03:19;13.77;;;12.05;;
11931;SDS011;6025;51.368;6.788;2023-04-16T14:08:11;13.80;;;11.60;;
11931;SDS011;6025;51.368;6.788;2023-04-16T14:13:03;15.38;;;11.95;;
11931;SDS011;6025;51.368;6.788;2023-04-16T14:17:55;14.68;;;12.50;;
11931;SDS011;6025;51.368;6.788;2023-04-16T14:22:48;12.88;;;11.20;;
11931;SDS011;6025;51.368;6.788;2023-04-16T14:27:39;14.80;;;11.38;;
11931;SDS011;6025;51.368;6.788;2023-04-16T14:32:31;16.25;;;11.90;;
11931;SDS011;6025;51.368;6.788;2023-04-16T14:37:23;12.73;;;10.32;;
11931;SDS011;6025;51.368;6.788;2023-04-16T14:42:16;10.50;;;9.40;;
11931;SDS011;6025;51.368;6.788;2023-04-16T14:47:08;12.63;;;10.57;;
11931;SDS011;6025;51.368;6.788;2023-04-16T14:52:00;13.38;;;10.57;;
11931;SDS011;6025;51.368;6.788;2023-04-16T14:56:54;14.20;;;11.38;;
11931;SDS011;6025;51.368;6.788;2023-04-16T15:01:47;13.48;;;11.77;;
11931;SDS011;6025;51.368;6.788;2023-04-16T15:06:38;13.05;;;10.15;;
11931;SDS011;6025;51.368;6.788;2023-04-16T15:11:30;13.23;;;10.75;;
11931;SDS011;6025;51.368;6.788;2023-04-16T15:16:22;11.98;;;9.80;;
11931;SDS011;6025;51.368;6.788;2023-04-16T15:21:15;11.98;;;10.20;;
11931;SDS011;6025;51.368;6.788;2023-04-16T15:26:06;12.45;;;9.80;;
11931;SDS011;6025;51.368;6.788;2023-04-16T15:30:58;13.85;;;10.98;;
11931;SDS011;6025;51.368;6.788;2023-04-16T15:35:49;13.90;;;11.30;;
11931;SDS011;6025;51.368;6.788;2023-04-16T15:40:42;9.10;;;8.20;;
11931;SDS011;6025;51.368;6.788;2023-04-16T15:45:34;17.95;;;13.43;;
11931;SDS011;6025;51.368;6.788;2023-04-16T15:50:26;13.05;;;10.63;;
11931;SDS011;6025;51.368;6.788;2023-04-16T15:55:18;11.88;;;9.77;;
11931;SDS011;6025;51.368;6.788;2023-04-16T16:00:11;13.30;;;10.73;;
11931;SDS011;6025;51.368;6.788;2023-04-16T16:05:07;12.93;;;11.00;;
11931;SDS011;6025;51.368;6.788;2023-04-16T16:09:59;18.75;;;14.07;;
11931;SDS011;6025;51.368;6.788;2023-04-16T16:14:51;18.08;;;14.50;;
11931;SDS011;6025;51.368;6.788;2023-04-16T16:19:44;25.85;;;17.10;;
11931;SDS011;6025;51.368;6.788;2023-04-16T16:24:35;27.40;;;15.75;;
11931;SDS011;6025;51.368;6.788;2023-04-16T16:29:27;24.75;;;15.05;;
11931;SDS011;6025;51.368;6.788;2023-04-16T16:34:19;24.70;;;13.60;;
11931;SDS011;6025;51.368;6.788;2023-04-16T16:39:12;23.40;;;15.45;;
11931;SDS011;6025;51.368;6.788;2023-04-16T16:44:03;23.60;;;14.55;;
11931;SDS011;6025;51.368;6.788;2023-04-16T16:48:55;21.15;;;14.18;;
11931;SDS011;6025;51.368;6.788;2023-04-16T16:53:47;21.65;;;13.32;;
11931;SDS011;6025;51.368;6.788;2023-04-16T16:58:40;26.05;;;14.45;;
11931;SDS011;6025;51.368;6.788;2023-04-16T17:03:32;24.88;;;13.90;;
11931;SDS011;6025;51.368;6.788;2023-04-16T17:08:24;25.10;;;14.43;;
11931;SDS011;6025;51.368;6.788;2023-04-16T17:13:17;29.23;;;16.33;;
11931;SDS011;6025;51.368;6.788;2023-04-16T17:18:11;24.30;;;14.40;;
11931;SDS011;6025;51.368;6.788;2023-04-16T17:23:03;24.20;;;15.65;;
11931;SDS011;6025;51.368;6.788;2023-04-16T17:27:55;28.77;;;16.70;;
11931;SDS011;6025;51.368;6.788;2023-04-16T17:32:47;26.67;;;14.63;;
11931;SDS011;6025;51.368;6.788;2023-04-16T17:37:40;21.83;;;15.43;;
11931;SDS011;6025;51.368;6.788;2023-04-16T17:42:32;23.52;;;16.25;;
11931;SDS011;6025;51.368;6.788;2023-04-16T17:47:24;22.08;;;15.60;;
11931;SDS011;6025;51.368;6.788;2023-04-16T17:52:16;25.40;;;17.10;;
11931;SDS011;6025;51.368;6.788;2023-04-16T17:57:09;22.17;;;15.63;;
11931;SDS011;6025;51.368;6.788;2023-04-16T18:02:00;29.83;;;16.30;;
11931;SDS011;6025;51.368;6.788;2023-04-16T18:06:52;23.00;;;15.63;;
11931;SDS011;6025;51.368;6.788;2023-04-16T18:11:43;27.80;;;15.77;;
11931;SDS011;6025;51.368;6.788;2023-04-16T18:16:36;26.58;;;16.88;;
11931;SDS011;6025;51.368;6.788;2023-04-16T18:21:28;24.83;;;16.08;;
11931;SDS011;6025;51.368;6.788;2023-04-16T18:26:20;26.02;;;15.07;;
11931;SDS011;6025;51.368;6.788;2023-04-16T18:31:12;19.00;;;14.63;;
11931;SDS011;6025;51.368;6.788;2023-04-16T18:36:05;22.00;;;14.10;;
11931;SDS011;6025;51.368;6.788;2023-04-16T18:40:56;21.77;;;14.00;;
11931;SDS011;6025;51.368;6.788;2023-04-16T18:45:48;20.98;;;13.40;;
11931;SDS011;6025;51.368;6.788;2023-04-16T18:50:40;18.48;;;12.85;;
11931;SDS011;6025;51.368;6.788;2023-04-16T18:55:33;17.88;;;12.95;;
11931;SDS011;6025;51.368;6.788;2023-04-16T19:00:24;25.15;;;14.23;;
11931;SDS011;6025;51.368;6.788;2023-04-16T19:05:16;18.80;;;12.52;;
11931;SDS011;6025;51.368;6.788;2023-04-16T19:10:09;19.13;;;12.93;;
11931;SDS011;6025;51.368;6.788;2023-04-16T19:15:03;20.08;;;12.40;;
11931;SDS011;6025;51.368;6.788;2023-04-16T19:19:55;17.80;;;11.77;;
11931;SDS011;6025;51.368;6.788;2023-04-16T19:24:47;21.50;;;13.38;;
11931;SDS011;6025;51.368;6.788;2023-04-16T19:29:38;22.52;;;13.05;;
11931;SDS011;6025;51.368;6.788;2023-04-16T19:34:34;22.00;;;13.73;;
11931;SDS011;6025;51.368;6.788;2023-04-16T19:39:25;21.80;;;12.15;;
11931;SDS011;6025;51.368;6.788;2023-04-16T19:44:17;27.05;;;14.40;;
11931;SDS011;6025;51.368;6.788;2023-04-16T19:49:11;26.38;;;14.05;;
11931;SDS011;6025;51.368;6.788;2023-04-16T19:54:04;24.73;;;14.25;;
11931;SDS011;6025;51.368;6.788;2023-04-16T19:58:56;27.67;;;14.70;;
11931;SDS011;6025;51.368;6.788;2023-04-16T20:03:49;25.15;;;16.10;;
11931;SDS011;6025;51.368;6.788;2023-04-16T20:08:41;23.45;;;13.13;;
11931;SDS011;6025;51.368;6.788;2023-04-16T20:13:34;22.30;;;13.30;;
11931;SDS011;6025;51.368;6.788;2023-04-16T20:18:27;24.17;;;13.80;;
11931;SDS011;6025;51.368;6.788;2023-04-16T20:23:19;20.98;;;15.32;;
11931;SDS011;6025;51.368;6.788;2023-04-16T20:28:10;21.58;;;14.38;;
11931;SDS011;6025;51.368;6.788;2023-04-16T20:33:05;24.08;;;13.98;;
11931;SDS011;6025;51.368;6.788;2023-04-16T20:37:56;24.13;;;14.73;;
11931;SDS011;6025;51.368;6.788;2023-04-16T20:42:48;23.00;;;14.98;;
11931;SDS011;6025;51.368;6.788;2023-04-16T20:47:41;24.15;;;14.75;;
11931;SDS011;6025;51.368;6.788;2023-04-16T20:52:34;22.77;;;14.57;;
11931;SDS011;6025;51.368;6.788;2023-04-16T20:57:26;23.42;;;14.25;;
11931;SDS011;6025;51.368;6.788;2023-04-16T21:02:18;22.55;;;14.52;;
11931;SDS011;6025;51.368;6.788;2023-04-16T21:07:10;22.48;;;15.48;;
11931;SDS011;6025;51.368;6.788;2023-04-16T21:12:03;24.52;;;15.82;;
11931;SDS011;6025;51.368;6.788;2023-04-16T21:16:55;25.30;;;16.85;;
11931;SDS011;6025;51.368;6.788;2023-04-16T21:21:46;22.65;;;16.05;;
11931;SDS011;6025;51.368;6.788;2023-04-16T21:26:38;21.48;;;16.05;;
11931;SDS011;6025;51.368;6.788;2023-04-16T21:31:31;21.52;;;16.02;;
11931;SDS011;6025;51.368;6.788;2023-04-16T21:36:22;22.73;;;17.23;;
11931;SDS011;6025;51.368;6.788;2023-04-16T21:41:15;22.67;;;17.65;;
11931;SDS011;6025;51.368;6.788;2023-04-16T21:46:07;28.58;;;17.48;;
11931;SDS011;6025;51.368;6.788;2023-04-16T21:51:00;22.65;;;17.25;;
11931;SDS011;6025;51.368;6.788;2023-04-16T21:55:55;23.23;;;17.95;;
11931;SDS011;6025;51.368;6.788;2023-04-16T22:00:46;24.48;;;19.23;;
11931;SDS011;6025;51.368;6.788;2023-04-16T22:05:38;29.48;;;20.75;;
11931;SDS011;6025;51.368;6.788;2023-04-16T22:10:31;29.38;;;21.02;;
11931;SDS011;6025;51.368;6.788;2023-04-16T22:15:23;26.02;;;20.13;;
11931;SDS011;6025;51.368;6.788;2023-04-16T22:20:14;30.50;;;22.80;;
11931;SDS011;6025;51.368;6.788;2023-04-16T22:25:06;30.02;;;22.65;;
11931;SDS011;6025;51.368;6.788;2023-04-16T22:29:59;35.78;;;25.17;;
11931;SDS011;6025;51.368;6.788;2023-04-16T22:34:51;39.55;;;25.67;;
11931;SDS011;6025;51.368;6.788;2023-04-16T22:39:43;36.28;;;26.23;;
11931;SDS011;6025;51.368;6.788;2023-04-16T22:44:34;38.83;;;26.80;;
11931;SDS011;6025;51.368;6.788;2023-04-16T22:49:28;44.03;;;28.15;;
11931;SDS011;6025;51.368;6.788;2023-04-16T22:54:22;34.47;;;26.58;;
11931;SDS011;6025;51.368;6.788;2023-04-16T22:59:18;37.25;;;26.63;;
11931;SDS011;6025;51.368;6.788;2023-04-16T23:04:09;35.08;;;24.48;;
11931;SDS011;6025;51.368;6.788;2023-04-16T23:09:02;27.98;;;21.63;;
11931;SDS011;6025;51.368;6.788;2023-04-16T23:13:54;28.13;;;20.55;;
11931;SDS011;6025;51.368;6.788;2023-04-16T23:18:46;30.10;;;21.08;;
11931;SDS011;6025;51.368;6.788;2023-04-16T23:23:37;27.42;;;20.58;;
11931;SDS011;6025;51.368;6.788;2023-04-16T23:28:30;29.50;;;20.98;;
11931;SDS011;6025;51.368;6.788;2023-04-16T23:33:22;25.73;;;20.55;;
11931;SDS011;6025;51.368;6.788;2023-04-16T23:38:13;28.13;;;20.08;;
11931;SDS011;6025;51.368;6.788;2023-04-16T23:43:05;28.35;;;21.13;;
11931;SDS011;6025;51.368;6.788;2023-04-16T23:47:58;24.98;;;20.30;;
11931;SDS011;6025;51.368;6.788;2023-04-16T23:52:49;26.73;;;20.88;;
11931;SDS011;6025;51.368;6.788;2023-04-16T23:57:41;28.13;;;21.33;;
